Time;durP1;ratioP1;P1;durP2;ratioP2;P2;SDS_P1;SDS_P2;PMS_P1;PMS_P2;Temp;Humidity;BMP_temperature;BMP_pressure;BME280_temperature;BME280_humidity;BME280_pressure;Samples;Min_cycle;Max_cycle;Signal;HPM_P1;HPM_P2
2023/01/17 00:01:26;;;;;;;4.63;4.13;;;5.70;1.00;;;;;;5051248;28;20536;-62
2023/01/17 00:12:05;;;;;;;5.43;4.93;;;5.80;1.00;;;;;;5048453;28;20450;-62
2023/01/17 00:14:31;;;;;;;5.40;4.67;;;5.80;1.00;;;;;;5051279;28;20590;-63
2023/01/17 00:16:57;;;;;;;4.90;4.40;;;5.70;1.00;;;;;;5049958;28;20523;-62
2023/01/17 01:35:03;;;;;;;1.93;1.73;;;6.80;1.00;;;;;;5047021;28;20443;-62
2023/01/17 01:37:30;;;;;;;1.60;1.33;;;7.00;1.00;;;;;;5047134;28;20457;-63
2023/01/17 01:39:56;;;;;;;1.63;1.53;;;7.00;1.00;;;;;;5048159;28;20529;-63
2023/01/17 01:42:21;;;;;;;1.40;1.23;;;7.10;1.00;;;;;;5048357;28;20527;-63
2023/01/17 01:44:53;;;;;;;2.80;1.30;;;7.20;1.00;;;;;;5046101;28;20193;-63
2023/01/17 01:47:29;;;;;;;1.80;1.33;;;7.20;1.00;;;;;;5046549;28;20210;-63
2023/01/17 01:49:55;;;;;;;1.23;1.03;;;7.20;1.00;;;;;;5043931;28;20976;-63
2023/01/17 01:52:22;;;;;;;1.37;1.27;;;7.30;1.00;;;;;;5046531;28;20506;-63
2023/01/17 01:54:50;;;;;;;1.43;1.20;;;7.30;1.00;;;;;;5047280;28;20659;-63
2023/01/17 01:57:20;;;;;;;1.53;1.30;;;7.30;1.00;;;;;;5047531;28;20775;-63
2023/01/17 01:59:51;;;;;;;1.70;1.23;;;7.30;1.00;;;;;;5046664;28;20456;-64
2023/01/17 02:02:17;;;;;;;0.97;0.97;;;7.40;1.00;;;;;;5045378;28;20447;-62
2023/01/17 02:04:44;;;;;;;2.30;1.17;;;7.40;1.00;;;;;;5048579;28;20776;-64
2023/01/17 02:07:16;;;;;;;0.93;0.80;;;7.40;1.00;;;;;;5047678;28;20277;-63
2023/01/17 02:09:42;;;;;;;0.80;0.80;;;7.30;1.00;;;;;;5046162;28;20514;-63
2023/01/17 02:12:08;;;;;;;1.33;1.20;;;7.40;1.00;;;;;;5045545;28;21240;-63
2023/01/17 02:14:34;;;;;;;1.47;1.37;;;7.40;1.00;;;;;;5046299;28;20944;-64
2023/01/17 02:17:11;;;;;;;0.93;0.80;;;7.40;1.00;;;;;;5046211;28;20444;-62
2023/01/17 02:19:46;;;;;;;1.50;1.10;;;7.40;1.00;;;;;;5046209;28;20193;-63
2023/01/17 02:22:24;;;;;;;1.20;1.00;;;7.40;1.00;;;;;;5047323;28;20482;-63
2023/01/17 02:25:07;;;;;;;1.20;0.77;;;7.40;1.00;;;;;;5047337;28;20972;-63
2023/01/17 02:28:08;;;;;;;0.67;0.60;;;7.50;1.00;;;;;;5045859;28;20968;-63
2023/01/17 02:30:55;;;;;;;1.23;0.93;;;7.50;1.00;;;;;;5046875;28;20446;-63
2023/01/17 02:33:27;;;;;;;0.77;0.60;;;7.40;1.00;;;;;;5046961;28;20835;-63
2023/01/17 02:36:17;;;;;;;1.30;0.60;;;7.40;1.00;;;;;;5045713;28;20543;-62
2023/01/17 02:38:58;;;;;;;0.90;0.80;;;7.40;1.00;;;;;;5046279;28;20498;-62
2023/01/17 02:41:43;;;;;;;0.73;0.70;;;7.70;1.00;;;;;;5042507;28;20468;-63
2023/01/17 02:44:14;;;;;;;0.53;0.53;;;7.80;1.00;;;;;;5047231;28;20940;-63
2023/01/17 02:46:47;;;;;;;1.17;0.67;;;7.80;1.00;;;;;;5045674;28;20525;-62
2023/01/17 02:49:15;;;;;;;0.50;0.50;;;7.90;1.00;;;;;;5046608;28;20497;-62
2023/01/17 02:52:17;;;;;;;4.40;0.70;;;8.00;1.00;;;;;;5047987;28;20502;-63
2023/01/17 02:55:17;;;;;;;0.60;0.50;;;7.90;1.00;;;;;;5046320;28;20448;-62
2023/01/17 02:58:03;;;;;;;0.60;0.47;;;7.90;1.00;;;;;;5046903;28;20447;-62
2023/01/17 03:00:50;;;;;;;0.70;0.47;;;8.00;1.00;;;;;;5047746;28;20927;-63
2023/01/17 03:03:51;;;;;;;0.53;0.40;;;8.00;1.00;;;;;;5044070;28;20944;-61
2023/01/17 03:06:19;;;;;;;0.30;0.30;;;8.10;1.00;;;;;;5047655;28;20815;-62
2023/01/17 03:08:47;;;;;;;0.40;0.30;;;8.10;1.00;;;;;;5046500;28;20469;-64
2023/01/17 03:11:13;;;;;;;0.80;0.50;;;8.10;1.00;;;;;;5048093;28;20448;-64
2023/01/17 03:13:40;;;;;;;0.30;0.30;;;8.10;1.00;;;;;;5047004;28;20439;-63
2023/01/17 03:16:10;;;;;;;0.50;0.30;;;8.20;1.00;;;;;;5045819;28;20655;-62
2023/01/17 03:18:36;;;;;;;0.40;0.30;;;8.20;1.00;;;;;;5045236;28;20456;-63
2023/01/17 03:21:01;;;;;;;0.30;0.30;;;8.20;1.00;;;;;;5046909;28;20455;-62
2023/01/17 03:23:27;;;;;;;0.40;0.30;;;8.20;1.00;;;;;;5047158;28;20205;-63
2023/01/17 03:25:53;;;;;;;0.40;0.40;;;8.20;1.00;;;;;;5047530;28;20193;-63
2023/01/17 03:28:18;;;;;;;0.30;0.20;;;8.20;1.00;;;;;;5045425;28;20540;-61
2023/01/17 03:30:44;;;;;;;1.43;0.30;;;8.00;1.00;;;;;;5047768;28;20190;-62
2023/01/17 03:33:10;;;;;;;0.40;0.40;;;8.10;1.00;;;;;;5046784;28;20189;-62
2023/01/17 03:35:35;;;;;;;0.40;0.40;;;8.10;1.00;;;;;;5051148;28;20216;-62
2023/01/17 03:38:01;;;;;;;0.90;0.40;;;8.10;1.00;;;;;;5050224;28;20206;-63
2023/01/17 03:40:26;;;;;;;0.30;0.20;;;8.00;1.00;;;;;;5049115;28;20847;-62
2023/01/17 03:42:52;;;;;;;0.40;0.40;;;8.10;1.00;;;;;;5046701;28;20185;-63
2023/01/17 03:45:18;;;;;;;1.23;0.60;;;8.10;1.00;;;;;;5049700;28;20249;-63
2023/01/17 03:47:44;;;;;;;0.87;0.43;;;8.00;1.00;;;;;;5049345;28;20247;-62
2023/01/17 03:50:12;;;;;;;0.40;0.40;;;7.90;1.00;;;;;;5047753;28;20894;-62
2023/01/17 03:52:37;;;;;;;1.23;0.70;;;8.00;1.00;;;;;;5050447;28;20197;-62
2023/01/17 03:55:04;;;;;;;0.40;0.40;;;7.90;1.00;;;;;;5055205;28;20922;-64
2023/01/17 03:57:30;;;;;;;1.03;0.40;;;8.00;1.00;;;;;;5048789;28;20497;-62
2023/01/17 03:59:55;;;;;;;0.40;0.40;;;8.10;1.00;;;;;;5047228;28;20945;-64
2023/01/17 04:02:23;;;;;;;0.60;0.30;;;8.20;1.00;;;;;;5048723;28;20288;-63
2023/01/17 04:04:48;;;;;;;0.60;0.50;;;8.20;1.00;;;;;;5052788;28;20669;-62
2023/01/17 04:07:14;;;;;;;0.50;0.50;;;8.30;1.00;;;;;;5049196;28;20443;-63
2023/01/17 04:09:39;;;;;;;0.40;0.37;;;8.10;1.00;;;;;;5049930;28;20678;-62
2023/01/17 04:12:05;;;;;;;0.50;0.50;;;8.00;1.00;;;;;;5049246;28;20193;-63
2023/01/17 04:14:31;;;;;;;0.47;0.47;;;7.80;1.00;;;;;;5050967;28;20185;-62
2023/01/17 04:16:57;;;;;;;1.10;0.50;;;7.80;1.00;;;;;;5049942;28;20182;-62
2023/01/17 04:19:22;;;;;;;0.63;0.63;;;7.80;1.00;;;;;;5050694;28;20197;-61
2023/01/17 04:21:48;;;;;;;0.80;0.50;;;7.90;1.00;;;;;;5050402;28;20185;-63
2023/01/17 04:24:14;;;;;;;0.53;0.50;;;7.90;1.00;;;;;;5049146;28;20456;-63
2023/01/17 04:26:39;;;;;;;1.20;0.63;;;8.00;1.00;;;;;;5051062;28;20194;-63
2023/01/17 04:29:05;;;;;;;1.83;0.70;;;7.90;1.00;;;;;;5050438;28;20197;-63
2023/01/17 04:31:30;;;;;;;0.80;0.50;;;7.80;1.00;;;;;;5049660;28;20725;-63
2023/01/17 04:33:56;;;;;;;0.87;0.67;;;7.80;1.00;;;;;;5049198;28;20186;-62
2023/01/17 04:36:22;;;;;;;0.80;0.70;;;7.90;1.00;;;;;;5051225;28;20337;-62
2023/01/17 04:38:47;;;;;;;0.70;0.70;;;8.00;1.00;;;;;;5048723;28;20536;-63
2023/01/17 04:41:13;;;;;;;1.70;0.83;;;8.00;1.00;;;;;;5048255;28;20189;-62
2023/01/17 04:43:38;;;;;;;0.70;0.70;;;7.90;1.00;;;;;;5048000;28;20627;-62
2023/01/17 04:46:08;;;;;;;0.60;0.60;;;7.80;1.00;;;;;;5048462;28;20264;-63
2023/01/17 04:48:34;;;;;;;1.13;0.70;;;7.80;1.00;;;;;;5045176;28;20205;-63
2023/01/17 04:51:01;;;;;;;0.53;0.53;;;7.90;1.00;;;;;;5046812;28;20448;-62
2023/01/17 04:53:26;;;;;;;1.00;0.80;;;7.90;1.00;;;;;;5049675;28;20463;-63
2023/01/17 04:55:52;;;;;;;1.07;0.97;;;8.00;1.00;;;;;;5047213;28;20440;-62
2023/01/17 04:58:18;;;;;;;0.77;0.77;;;7.90;1.00;;;;;;5048341;28;20635;-63
2023/01/17 05:00:45;;;;;;;0.80;0.60;;;7.90;1.00;;;;;;5051466;28;20194;-63
2023/01/17 05:03:10;;;;;;;1.93;0.73;;;7.90;1.00;;;;;;5048731;28;20440;-63
2023/01/17 05:05:36;;;;;;;0.87;0.70;;;7.90;1.00;;;;;;5048738;28;20451;-63
2023/01/17 05:08:01;;;;;;;3.30;1.60;;;7.80;1.00;;;;;;5047232;28;20209;-62
2023/01/17 05:10:27;;;;;;;0.67;0.67;;;7.60;1.00;;;;;;5047700;28;20194;-63
2023/01/17 05:12:53;;;;;;;1.00;1.00;;;7.80;1.00;;;;;;5046536;28;20178;-62
2023/01/17 05:15:19;;;;;;;1.10;0.80;;;7.80;1.00;;;;;;5045636;28;20505;-61
2023/01/17 05:17:45;;;;;;;1.40;0.83;;;7.90;1.00;;;;;;5052878;28;20455;-61
2023/01/17 05:20:11;;;;;;;2.63;1.00;;;7.90;1.00;;;;;;5057039;28;20609;-61
2023/01/17 05:22:36;;;;;;;0.80;0.50;;;7.90;1.00;;;;;;5050011;28;20197;-60
2023/01/17 05:25:02;;;;;;;0.70;0.70;;;8.00;1.00;;;;;;5058213;28;20189;-61
2023/01/17 05:27:28;;;;;;;1.10;0.73;;;7.90;1.00;;;;;;5058922;28;20216;-61
2023/01/17 05:29:54;;;;;;;0.80;0.60;;;7.90;1.00;;;;;;5052703;28;20197;-63
2023/01/17 05:32:19;;;;;;;0.70;0.70;;;7.90;1.00;;;;;;5049785;28;20453;-64
2023/01/17 05:34:45;;;;;;;1.07;0.57;;;7.90;1.00;;;;;;5048712;28;20228;-63
2023/01/17 05:37:11;;;;;;;1.20;0.60;;;8.00;1.00;;;;;;5049445;28;20181;-62
2023/01/17 05:39:36;;;;;;;0.70;0.70;;;7.90;1.00;;;;;;5047329;28;20178;-64
2023/01/17 05:42:02;;;;;;;1.40;0.60;;;7.90;1.00;;;;;;5051371;28;20185;-64
2023/01/17 05:44:28;;;;;;;0.53;0.47;;;7.90;1.00;;;;;;5047675;28;20567;-63
2023/01/17 05:46:54;;;;;;;1.17;0.60;;;7.90;1.00;;;;;;5057630;28;20475;-63
2023/01/17 05:49:19;;;;;;;1.43;0.70;;;7.90;1.00;;;;;;5046935;28;20233;-63
2023/01/17 05:51:45;;;;;;;0.87;0.87;;;7.90;1.00;;;;;;5046908;28;20455;-63
2023/01/17 05:54:10;;;;;;;1.27;0.67;;;7.90;1.00;;;;;;5047464;28;20808;-63
2023/01/17 05:56:36;;;;;;;1.73;1.50;;;7.90;1.00;;;;;;5048993;28;20198;-62
2023/01/17 05:59:02;;;;;;;1.53;0.80;;;7.80;1.00;;;;;;5047048;28;20192;-63
2023/01/17 06:01:27;;;;;;;4.13;2.13;;;7.80;1.00;;;;;;5049685;28;20581;-64
2023/01/17 06:03:53;;;;;;;2.27;1.73;;;7.80;1.00;;;;;;5049225;28;20195;-64
2023/01/17 06:06:19;;;;;;;1.40;1.30;;;7.80;1.00;;;;;;5048156;28;20255;-64
2023/01/17 06:08:44;;;;;;;1.30;0.87;;;7.70;1.00;;;;;;5047193;28;20205;-63
2023/01/17 06:11:10;;;;;;;0.70;0.70;;;7.70;1.00;;;;;;5046270;28;20194;-64
2023/01/17 06:13:36;;;;;;;1.13;0.67;;;7.80;1.00;;;;;;5049128;28;20186;-65
2023/01/17 06:16:02;;;;;;;1.20;1.10;;;7.70;1.00;;;;;;5047390;28;20281;-64
2023/01/17 06:18:30;;;;;;;2.60;1.00;;;7.70;1.00;;;;;;5046155;28;20238;-65
2023/01/17 06:20:55;;;;;;;0.90;0.83;;;7.70;1.00;;;;;;5044800;28;21060;-64
2023/01/17 06:23:22;;;;;;;1.33;1.07;;;7.70;1.00;;;;;;5030933;28;20456;-64
2023/01/17 06:25:49;;;;;;;1.53;0.97;;;7.60;1.00;;;;;;5046007;28;20206;-64
2023/01/17 06:28:17;;;;;;;1.30;1.20;;;7.40;1.00;;;;;;5046945;28;20471;-64
2023/01/17 06:30:44;;;;;;;1.13;0.87;;;7.40;1.00;;;;;;5044742;28;20969;-64
2023/01/17 06:33:10;;;;;;;0.87;0.83;;;7.40;1.00;;;;;;5047293;28;20533;-64
2023/01/17 06:35:45;;;;;;;2.40;1.33;;;7.50;1.00;;;;;;5048324;28;20443;-64
2023/01/17 06:38:10;;;;;;;1.60;1.07;;;7.50;1.00;;;;;;5048987;28;20438;-65
2023/01/17 06:40:36;;;;;;;1.17;1.07;;;7.50;1.00;;;;;;5048739;28;20439;-64
2023/01/17 06:43:03;;;;;;;0.87;0.83;;;7.50;1.00;;;;;;5053990;28;20217;-64
2023/01/17 06:45:30;;;;;;;1.40;1.07;;;7.50;1.00;;;;;;5050805;28;20189;-63
2023/01/17 06:47:58;;;;;;;1.73;1.10;;;7.50;1.00;;;;;;5055337;28;20821;-64
2023/01/17 06:50:24;;;;;;;1.37;0.90;;;7.60;1.00;;;;;;5048896;28;20473;-64
2023/01/17 06:52:55;;;;;;;2.90;1.30;;;7.60;1.00;;;;;;5048696;28;20908;-63
2023/01/17 06:55:20;;;;;;;1.40;1.10;;;7.50;1.00;;;;;;5048805;28;20463;-65
2023/01/17 06:57:47;;;;;;;2.77;0.97;;;7.40;1.00;;;;;;5048958;28;20440;-65
2023/01/17 07:00:14;;;;;;;1.57;0.93;;;7.30;1.00;;;;;;5048209;28;20444;-65
2023/01/17 07:02:39;;;;;;;0.80;0.80;;;7.30;1.00;;;;;;5044915;28;20517;-63
2023/01/17 07:05:07;;;;;;;0.93;0.80;;;7.30;1.00;;;;;;5048489;28;20480;-64
2023/01/17 07:07:33;;;;;;;1.13;0.83;;;7.20;1.00;;;;;;5050749;28;20811;-64
2023/01/17 07:09:59;;;;;;;1.83;1.00;;;7.30;1.00;;;;;;5058751;28;20513;-64
2023/01/17 07:12:25;;;;;;;1.10;0.80;;;7.40;1.00;;;;;;5050946;28;20653;-64
2023/01/17 07:14:50;;;;;;;1.70;0.87;;;7.40;1.00;;;;;;5052310;28;20452;-64
2023/01/17 07:17:16;;;;;;;2.03;0.70;;;7.30;1.00;;;;;;5052788;28;20209;-63
2023/01/17 07:19:41;;;;;;;0.80;0.80;;;7.40;1.00;;;;;;5051955;28;20904;-62
2023/01/17 07:22:09;;;;;;;2.43;1.20;;;7.40;1.00;;;;;;5051203;28;20244;-63
2023/01/17 07:24:36;;;;;;;1.43;0.93;;;7.20;1.00;;;;;;5051944;28;20623;-63
2023/01/17 07:27:02;;;;;;;2.83;1.10;;;7.10;1.00;;;;;;5050000;28;20758;-63
2023/01/17 07:29:28;;;;;;;1.37;0.80;;;7.20;1.00;;;;;;5050997;28;20521;-63
2023/01/17 07:31:54;;;;;;;0.80;0.80;;;7.20;1.00;;;;;;5051128;28;20940;-64
2023/01/17 07:34:20;;;;;;;0.97;0.93;;;7.10;1.00;;;;;;5054851;28;20441;-63
2023/01/17 07:36:48;;;;;;;1.67;0.80;;;7.00;1.00;;;;;;5053399;28;20451;-63
2023/01/17 07:39:14;;;;;;;2.57;1.10;;;7.10;1.00;;;;;;5051338;28;20231;-62
2023/01/17 07:41:40;;;;;;;1.97;1.10;;;6.90;1.00;;;;;;5050891;28;20538;-64
2023/01/17 07:44:15;;;;;;;3.20;1.10;;;6.90;1.00;;;;;;5054377;28;20539;-63
2023/01/17 07:46:40;;;;;;;0.70;0.70;;;6.90;1.00;;;;;;5051359;28;20252;-63
2023/01/17 07:49:06;;;;;;;1.30;0.80;;;6.90;1.00;;;;;;5048994;28;20484;-63
2023/01/17 07:51:32;;;;;;;0.70;0.67;;;6.90;1.00;;;;;;5050032;28;20188;-64
2023/01/17 07:53:57;;;;;;;0.93;0.93;;;6.80;1.00;;;;;;5050758;28;20185;-64
2023/01/17 07:56:23;;;;;;;1.60;0.93;;;6.90;1.00;;;;;;5050375;28;20194;-63
2023/01/17 07:58:48;;;;;;;1.47;1.00;;;6.90;1.00;;;;;;5048370;28;20459;-62
2023/01/17 08:01:15;;;;;;;2.23;1.10;;;7.00;1.00;;;;;;5051713;28;21246;-64
2023/01/17 08:03:41;;;;;;;1.73;1.20;;;7.00;1.00;;;;;;5053135;28;20187;-63
2023/01/17 08:06:22;;;;;;;1.10;0.97;;;6.90;1.00;;;;;;5057790;28;21007;-63
2023/01/17 08:08:48;;;;;;;1.27;0.90;;;7.00;1.00;;;;;;5051023;28;20487;-63
2023/01/17 08:11:14;;;;;;;2.10;0.90;;;6.90;1.00;;;;;;5051742;28;20466;-62
2023/01/17 08:13:40;;;;;;;2.43;1.30;;;7.00;1.00;;;;;;5051596;28;20192;-63
2023/01/17 08:16:09;;;;;;;1.30;1.07;;;7.00;1.00;;;;;;5049446;28;20457;-62
2023/01/17 08:18:36;;;;;;;0.87;0.80;;;7.00;1.00;;;;;;5044893;28;20858;-62
2023/01/17 08:21:02;;;;;;;2.27;0.83;;;7.00;1.00;;;;;;5050827;28;20442;-63
2023/01/17 08:23:29;;;;;;;6.40;1.50;;;7.00;1.00;;;;;;5049449;28;20526;-62
2023/01/17 08:25:59;;;;;;;1.47;1.20;;;7.00;1.00;;;;;;5047632;28;20387;-63
2023/01/17 08:28:25;;;;;;;1.70;1.03;;;7.00;1.00;;;;;;5051867;28;20576;-62
2023/01/17 08:30:50;;;;;;;1.60;1.00;;;7.00;1.00;;;;;;5067642;28;20513;-62
2023/01/17 08:33:16;;;;;;;1.97;1.37;;;7.10;1.00;;;;;;5049280;28;20193;-64
2023/01/17 08:35:52;;;;;;;4.33;2.00;;;7.10;1.00;;;;;;5050473;28;20191;-62
2023/01/17 08:38:18;;;;;;;1.73;1.30;;;7.10;1.00;;;;;;5049665;28;20185;-62
2023/01/17 08:40:43;;;;;;;1.40;1.03;;;7.10;1.00;;;;;;5069446;28;20896;-63
2023/01/17 08:43:09;;;;;;;3.13;1.20;;;7.20;1.00;;;;;;5048538;28;20209;-62
2023/01/17 08:45:34;;;;;;;1.30;1.20;;;7.30;1.00;;;;;;5050431;28;20189;-62
2023/01/17 08:48:00;;;;;;;1.60;1.20;;;7.30;1.00;;;;;;5050488;28;20220;-62
2023/01/17 08:50:26;;;;;;;3.77;1.20;;;7.10;1.00;;;;;;5049008;28;20288;-62
2023/01/17 08:52:57;;;;;;;1.20;1.00;;;7.00;1.00;;;;;;5049644;28;20250;-63
2023/01/17 08:55:22;;;;;;;1.00;1.00;;;6.90;1.00;;;;;;5049011;28;20185;-61
2023/01/17 08:57:48;;;;;;;2.47;1.47;;;6.90;1.00;;;;;;5048905;28;20479;-61
2023/01/17 09:00:14;;;;;;;1.60;1.33;;;6.80;1.00;;;;;;5051404;28;20198;-61
2023/01/17 09:02:39;;;;;;;1.90;1.13;;;6.70;1.00;;;;;;5050741;28;20209;-62
2023/01/17 09:05:06;;;;;;;1.30;1.10;;;6.70;1.00;;;;;;5050622;28;20436;-62
2023/01/17 09:07:31;;;;;;;2.50;1.50;;;6.80;1.00;;;;;;5054861;28;20828;-62
2023/01/17 09:09:57;;;;;;;1.37;0.90;;;6.80;1.00;;;;;;5050596;28;20485;-61
2023/01/17 09:12:23;;;;;;;1.20;1.03;;;6.90;1.00;;;;;;5051386;28;20193;-63
2023/01/17 09:14:49;;;;;;;1.80;1.00;;;7.10;1.00;;;;;;5049586;28;20194;-64
2023/01/17 09:17:15;;;;;;;2.03;1.03;;;7.50;1.00;;;;;;5048174;28;20253;-63
2023/01/17 09:19:44;;;;;;;1.27;0.97;;;7.30;1.00;;;;;;5050213;28;20263;-62
2023/01/17 09:22:10;;;;;;;1.50;0.90;;;7.40;1.00;;;;;;5050160;28;20436;-63
2023/01/17 09:24:36;;;;;;;1.87;1.10;;;7.50;1.00;;;;;;5049650;28;21065;-61
2023/01/17 09:27:02;;;;;;;3.63;1.30;;;7.50;1.00;;;;;;5049907;28;20447;-62
2023/01/17 09:29:28;;;;;;;2.00;1.20;;;7.60;1.00;;;;;;5049463;28;20469;-62
2023/01/17 09:31:54;;;;;;;5.10;2.70;;;7.70;1.00;;;;;;5047635;28;20471;-63
2023/01/17 09:34:20;;;;;;;7.03;1.77;;;7.80;1.00;;;;;;5049786;28;20452;-62
2023/01/17 09:36:46;;;;;;;2.87;1.13;;;8.00;1.00;;;;;;5049964;28;20247;-62
2023/01/17 09:39:14;;;;;;;2.07;1.10;;;8.30;1.00;;;;;;5052222;28;20918;-63
2023/01/17 09:41:51;;;;;;;1.50;1.10;;;8.30;1.00;;;;;;5053358;28;20182;-61
2023/01/17 09:44:53;;;;;;;1.13;1.03;;;8.20;1.00;;;;;;5049701;28;20786;-62
2023/01/17 09:47:33;;;;;;;2.67;1.90;;;8.00;1.00;;;;;;5006238;28;20458;-63
2023/01/17 09:50:14;;;;;;;3.20;1.70;;;7.90;1.00;;;;;;5042397;28;20525;-63
2023/01/17 09:52:40;;;;;;;2.70;1.70;;;8.00;1.00;;;;;;5049067;28;20467;-63
2023/01/17 09:55:06;;;;;;;1.23;1.00;;;8.80;1.00;;;;;;5051931;28;20965;-63
2023/01/17 09:57:59;;;;;;;1.50;1.17;;;9.80;99.90;;;;;;5049159;28;20471;-63
2023/01/17 10:00:39;;;;;;;1.37;1.00;;;10.60;99.90;;;;;;5049480;28;20999;-63
2023/01/17 10:03:29;;;;;;;1.53;1.27;;;10.30;99.90;;;;;;5047783;28;20456;-62
2023/01/17 10:06:15;;;;;;;1.40;0.90;;;9.50;99.90;;;;;;5052856;28;20527;-62
2023/01/17 10:08:59;;;;;;;1.47;1.07;;;8.70;99.90;;;;;;5049465;28;20502;-63
2023/01/17 10:11:44;;;;;;;1.50;1.10;;;8.40;99.90;;;;;;5051650;28;20439;-62
2023/01/17 10:14:28;;;;;;;2.20;0.93;;;8.30;99.90;;;;;;5069306;28;20485;-63
2023/01/17 10:17:20;;;;;;;2.23;0.90;;;8.30;99.90;;;;;;5053145;28;20869;-63
2023/01/17 10:20:17;;;;;;;1.33;1.23;;;8.40;99.90;;;;;;5048411;28;21090;-62
2023/01/17 10:23:09;;;;;;;1.90;1.00;;;8.30;99.90;;;;;;5050114;28;21006;-62
2023/01/17 10:25:49;;;;;;;2.43;1.37;;;8.10;99.90;;;;;;5062751;28;20492;-64
2023/01/17 10:28:16;;;;;;;2.37;1.20;;;8.20;99.90;;;;;;5068944;28;20554;-63
2023/01/17 10:30:49;;;;;;;1.17;1.03;;;8.20;99.90;;;;;;5060349;28;20977;-62
2023/01/17 10:33:20;;;;;;;1.20;1.10;;;8.00;99.90;;;;;;5049493;28;20428;-62
2023/01/17 10:36:04;;;;;;;0.77;0.77;;;7.90;99.90;;;;;;5049493;28;20428;-61
2023/01/17 10:38:34;;;;;;;1.63;0.90;;;7.60;99.90;;;;;;5048682;28;20478;-62
2023/01/17 10:41:09;;;;;;;1.03;0.87;;;7.80;99.90;;;;;;5048384;28;20418;-62
2023/01/17 10:43:50;;;;;;;2.60;1.43;;;7.90;99.90;;;;;;5053013;28;20470;-62
2023/01/17 10:46:27;;;;;;;2.33;1.43;;;7.90;99.90;;;;;;5053058;28;20494;-63
2023/01/17 10:48:54;;;;;;;1.50;1.07;;;7.70;99.90;;;;;;5051450;28;20483;-62
2023/01/17 10:51:28;;;;;;;1.20;1.10;;;7.40;99.90;;;;;;5051059;28;20430;-62
2023/01/17 10:54:15;;;;;;;3.07;1.40;;;7.10;99.90;;;;;;5053039;28;20492;-63
2023/01/17 10:56:41;;;;;;;2.70;1.10;;;7.30;99.90;;;;;;5067000;28;20433;-63
2023/01/17 10:59:12;;;;;;;2.03;1.30;;;7.40;99.90;;;;;;5058700;28;20451;-63
2023/01/17 11:01:38;;;;;;;1.37;0.80;;;7.50;99.90;;;;;;5068483;28;20189;-63
2023/01/17 11:04:16;;;;;;;2.20;1.10;;;7.50;99.90;;;;;;5057564;28;20514;-59
2023/01/17 11:06:46;;;;;;;1.43;1.20;;;7.30;99.90;;;;;;5048586;28;20195;-59
2023/01/17 11:09:12;;;;;;;2.17;0.70;;;7.30;99.90;;;;;;5054623;28;20476;-59
2023/01/17 11:11:50;;;;;;;0.90;0.90;;;7.20;99.90;;;;;;5052872;28;20929;-61
2023/01/17 11:14:24;;;;;;;7.87;1.40;;;7.20;99.90;;;;;;5052514;28;20513;-60
2023/01/17 11:17:01;;;;;;;1.30;1.20;;;7.40;99.90;;;;;;5065454;28;20966;-59
2023/01/17 11:19:34;;;;;;;1.20;1.10;;;7.70;99.90;;;;;;5051251;28;20451;-59
2023/01/17 11:22:06;;;;;;;2.10;1.30;;;8.00;99.90;;;;;;5057564;28;21038;-60
2023/01/17 11:24:46;;;;;;;1.43;1.20;;;7.90;99.90;;;;;;5052412;28;20425;-60
2023/01/17 11:27:26;;;;;;;1.57;1.10;;;7.70;99.90;;;;;;5055518;28;20440;-59
2023/01/17 11:30:17;;;;;;;1.93;1.00;;;7.60;99.90;;;;;;5049467;28;20463;-59
2023/01/17 11:32:56;;;;;;;1.27;1.10;;;7.70;99.90;;;;;;5052040;28;20491;-60
2023/01/17 11:35:29;;;;;;;1.53;0.87;;;7.70;99.90;;;;;;5056982;28;20521;-60
2023/01/17 11:38:01;;;;;;;0.93;0.83;;;7.80;99.90;;;;;;5051924;28;20539;-60
2023/01/17 11:40:39;;;;;;;1.07;0.97;;;7.90;99.90;;;;;;5054441;28;20790;-59
2023/01/17 11:43:13;;;;;;;2.40;1.10;;;7.80;99.90;;;;;;5049916;28;20914;-59
2023/01/17 11:45:39;;;;;;;1.00;0.90;;;8.00;99.90;;;;;;5050849;28;20819;-58
2023/01/17 11:48:12;;;;;;;1.63;0.90;;;8.10;99.90;;;;;;5050869;28;20475;-60
2023/01/17 11:50:45;;;;;;;1.30;1.10;;;7.10;99.90;;;;;;5051620;28;20485;-60
2023/01/17 11:53:23;;;;;;;2.93;1.27;;;8.50;99.90;;;;;;5050850;28;20460;-60
2023/01/17 11:56:02;;;;;;;1.70;0.97;;;8.60;99.90;;;;;;5046695;28;20544;-61
2023/01/17 11:58:29;;;;;;;3.33;1.00;;;8.60;99.90;;;;;;5050503;28;20452;-60
2023/01/17 12:01:20;;;;;;;1.43;1.00;;;8.70;99.90;;;;;;5051976;28;20985;-60
2023/01/17 12:04:23;;;;;;;1.10;0.80;;;8.70;99.90;;;;;;5051145;28;20456;-60
2023/01/17 12:06:52;;;;;;;1.43;1.23;;;8.90;99.90;;;;;;5032721;28;20452;-60
2023/01/17 12:09:23;;;;;;;1.50;0.87;;;8.80;99.90;;;;;;5049746;28;20541;-60
2023/01/17 12:15:53;;;;;;;1.17;1.07;;;9.10;99.90;;;;;;5032614;28;20470;-61
2023/01/17 12:18:48;;;;;;;1.53;0.90;;;9.10;99.90;;;;;;5049127;28;20888;-60
2023/01/17 12:21:33;;;;;;;2.57;1.13;;;9.20;99.90;;;;;;5055172;28;20446;-60
2023/01/17 12:24:16;;;;;;;1.37;0.80;;;9.20;99.90;;;;;;5051515;28;20476;-60
2023/01/17 12:26:53;;;;;;;3.10;1.37;;;9.30;99.90;;;;;;5049182;28;20938;-60
2023/01/17 12:29:40;;;;;;;1.60;1.13;;;9.50;99.90;;;;;;5055246;28;21027;-60
2023/01/17 12:32:18;;;;;;;3.07;1.33;;;9.60;99.90;;;;;;5046854;28;20449;-60
2023/01/17 12:35:12;;;;;;;1.50;1.20;;;9.50;99.90;;;;;;5048779;28;20445;-62
2023/01/17 12:37:44;;;;;;;2.73;1.27;;;8.90;99.90;;;;;;5040485;28;20548;-59
2023/01/17 12:40:29;;;;;;;1.80;1.00;;;8.70;99.90;;;;;;5052471;28;20551;-59
2023/01/17 12:43:23;;;;;;;1.73;1.10;;;8.30;99.90;;;;;;5047504;28;20501;-60
2023/01/17 12:45:51;;;;;;;1.00;0.60;;;8.30;99.90;;;;;;5048927;28;20449;-59
2023/01/17 12:48:19;;;;;;;3.60;1.10;;;8.40;99.90;;;;;;5048376;28;20959;-60
2023/01/17 12:50:53;;;;;;;1.30;1.10;;;8.50;99.90;;;;;;5049273;28;20491;-59
2023/01/17 12:53:57;;;;;;;3.40;1.97;;;8.50;99.90;;;;;;5051755;28;20455;-60
2023/01/17 12:56:43;;;;;;;0.70;0.70;;;8.40;99.90;;;;;;5063247;28;20455;-60
2023/01/17 12:59:18;;;;;;;2.70;0.70;;;8.10;99.90;;;;;;5053162;28;20995;-61
2023/01/17 13:01:56;;;;;;;3.43;1.20;;;8.00;99.90;;;;;;5044199;28;20455;-62
2023/01/17 13:04:43;;;;;;;1.53;1.20;;;8.00;99.90;;;;;;5046998;28;20452;-61
2023/01/17 13:07:33;;;;;;;1.50;1.03;;;8.10;99.90;;;;;;5049288;28;20451;-62
2023/01/17 13:10:13;;;;;;;4.10;1.50;;;8.10;99.90;;;;;;5049515;28;20469;-61
2023/01/17 13:12:39;;;;;;;1.47;1.20;;;8.00;99.90;;;;;;5050047;28;20445;-62
2023/01/17 13:15:24;;;;;;;1.83;1.10;;;8.10;99.90;;;;;;5050405;28;20486;-62
2023/01/17 13:17:59;;;;;;;1.23;0.90;;;8.20;99.90;;;;;;5049172;28;20451;-61
2023/01/17 13:20:48;;;;;;;1.47;1.20;;;8.10;99.90;;;;;;5048821;28;20523;-63
2023/01/17 13:24:00;;;;;;;3.80;1.00;;;8.10;99.90;;;;;;5053443;28;20454;-61
2023/01/17 13:26:52;;;;;;;1.87;0.70;;;8.10;99.90;;;;;;5059299;28;20866;-62
2023/01/17 13:29:38;;;;;;;2.60;0.73;;;8.10;99.90;;;;;;5069972;28;20475;-61
2023/01/17 13:32:10;;;;;;;1.10;1.00;;;8.20;99.90;;;;;;5069544;28;20442;-62
2023/01/17 13:34:57;;;;;;;2.30;1.20;;;8.30;99.90;;;;;;5063543;28;20565;-63
2023/01/17 13:37:30;;;;;;;2.27;1.60;;;8.10;99.90;;;;;;5049366;28;20448;-62
2023/01/17 13:40:25;;;;;;;1.23;1.13;;;8.00;99.90;;;;;;5049784;28;20436;-61
2023/01/17 13:42:59;;;;;;;1.77;1.20;;;8.10;99.90;;;;;;5048428;28;20542;-62
2023/01/17 13:45:28;;;;;;;2.60;1.67;;;8.10;99.90;;;;;;5049535;28;20436;-61
2023/01/17 13:48:08;;;;;;;1.10;1.00;;;8.00;99.90;;;;;;5049662;28;20456;-62
2023/01/17 13:50:37;;;;;;;1.53;1.03;;;8.00;99.90;;;;;;5049004;28;20467;-61
2023/01/17 13:53:27;;;;;;;2.77;1.00;;;7.90;99.90;;;;;;5049764;28;20486;-63
2023/01/17 13:56:17;;;;;;;4.53;1.40;;;7.80;99.90;;;;;;5048994;28;20445;-62
2023/01/17 13:58:57;;;;;;;3.50;1.10;;;7.80;99.90;;;;;;5049266;28;20464;-61
2023/01/17 14:01:22;;;;;;;1.17;1.07;;;7.80;99.90;;;;;;5049486;28;20427;-61
2023/01/17 14:03:48;;;;;;;2.33;1.27;;;7.60;99.90;;;;;;5049334;28;20947;-61
2023/01/17 14:06:43;;;;;;;1.00;0.90;;;7.60;99.90;;;;;;5048612;28;21002;-61
2023/01/17 14:09:26;;;;;;;2.00;1.30;;;7.40;99.90;;;;;;5039516;28;20787;-62
2023/01/17 14:12:02;;;;;;;1.53;1.10;;;7.40;99.90;;;;;;5047285;28;20527;-62
2023/01/17 14:14:40;;;;;;;1.90;1.10;;;7.30;99.90;;;;;;5048969;28;20944;-61
2023/01/17 14:17:26;;;;;;;1.37;1.20;;;7.30;99.90;;;;;;5066298;28;20519;-61
2023/01/17 14:20:02;;;;;;;2.40;0.90;;;7.30;99.90;;;;;;5058723;28;20831;-61
2023/01/17 14:22:31;;;;;;;1.80;1.23;;;7.20;99.90;;;;;;5069053;28;20454;-60
2023/01/17 14:25:16;;;;;;;2.27;1.10;;;7.30;99.90;;;;;;5067416;28;20442;-62
2023/01/17 14:27:41;;;;;;;4.00;1.40;;;7.40;99.90;;;;;;5048965;28;21038;-61
2023/01/17 14:30:16;;;;;;;2.20;1.30;;;7.30;99.90;;;;;;5049553;28;20428;-62
2023/01/17 14:33:07;;;;;;;1.87;1.10;;;7.20;99.90;;;;;;5048188;28;20208;-61
2023/01/17 14:35:38;;;;;;;2.13;0.93;;;7.30;99.90;;;;;;5048593;28;20438;-61
2023/01/17 14:38:31;;;;;;;1.83;1.20;;;7.20;99.90;;;;;;5049070;28;20441;-61
2023/01/17 14:41:07;;;;;;;1.63;1.20;;;7.10;99.90;;;;;;5047188;28;20441;-61
2023/01/17 14:43:36;;;;;;;1.67;0.90;;;7.10;99.90;;;;;;5048909;28;20790;-63
2023/01/17 14:46:25;;;;;;;1.30;1.20;;;7.00;99.90;;;;;;5048703;28;20442;-62
2023/01/17 14:48:59;;;;;;;1.57;0.87;;;6.90;99.90;;;;;;5047485;28;20612;-61
2023/01/17 14:51:25;;;;;;;1.53;1.10;;;6.90;99.90;;;;;;5051604;28;20818;-62
2023/01/17 14:53:56;;;;;;;2.97;1.30;;;6.90;99.90;;;;;;5069096;28;20445;-62
2023/01/17 14:56:23;;;;;;;8.53;1.50;;;7.00;99.90;;;;;;5066503;28;20183;-61